sensor_id;sensor_type;location;lat;lon;timestamp;P1;durP1;ratioP1;P2;durP2;ratioP2
56136;SDS011;42008;52.934;5.884;2023-05-13T00:02:14;12.70;;;9.23;;
56136;SDS011;42008;52.934;5.884;2023-05-13T00:04:40;11.57;;;9.40;;
56136;SDS011;42008;52.934;5.884;2023-05-13T00:07:06;14.47;;;9.80;;
56136;SDS011;42008;52.934;5.884;2023-05-13T00:09:31;14.20;;;9.93;;
56136;SDS011;42008;52.934;5.884;2023-05-13T00:11:57;15.10;;;10.37;;
56136;SDS011;42008;52.934;5.884;2023-05-13T00:14:22;14.90;;;9.67;;
56136;SDS011;42008;52.934;5.884;2023-05-13T00:16:48;15.73;;;10.67;;
56136;SDS011;42008;52.934;5.884;2023-05-13T00:19:13;12.67;;;9.33;;
56136;SDS011;42008;52.934;5.884;2023-05-13T00:21:39;13.27;;;10.07;;
56136;SDS011;42008;52.934;5.884;2023-05-13T00:24:05;13.00;;;9.67;;
56136;SDS011;42008;52.934;5.884;2023-05-13T00:26:31;13.70;;;10.53;;
56136;SDS011;42008;52.934;5.884;2023-05-13T00:28:56;14.43;;;10.23;;
56136;SDS011;42008;52.934;5.884;2023-05-13T00:31:22;12.07;;;10.77;;
56136;SDS011;42008;52.934;5.884;2023-05-13T00:33:48;15.50;;;10.77;;
56136;SDS011;42008;52.934;5.884;2023-05-13T00:36:13;13.93;;;11.10;;
56136;SDS011;42008;52.934;5.884;2023-05-13T00:38:39;17.30;;;12.00;;
56136;SDS011;42008;52.934;5.884;2023-05-13T00:41:05;17.50;;;12.60;;
56136;SDS011;42008;52.934;5.884;2023-05-13T00:43:30;18.60;;;11.87;;
56136;SDS011;42008;52.934;5.884;2023-05-13T00:45:56;16.27;;;11.70;;
56136;SDS011;42008;52.934;5.884;2023-05-13T00:48:22;12.93;;;11.50;;
56136;SDS011;42008;52.934;5.884;2023-05-13T00:50:48;20.27;;;12.10;;
56136;SDS011;42008;52.934;5.884;2023-05-13T00:53:15;17.63;;;11.83;;
56136;SDS011;42008;52.934;5.884;2023-05-13T00:55:41;16.77;;;12.23;;
56136;SDS011;42008;52.934;5.884;2023-05-13T00:58:08;14.27;;;11.70;;
56136;SDS011;42008;52.934;5.884;2023-05-13T01:00:35;22.00;;;12.80;;
56136;SDS011;42008;52.934;5.884;2023-05-13T01:03:07;17.40;;;11.53;;
56136;SDS011;42008;52.934;5.884;2023-05-13T01:11:18;14.77;;;12.03;;
56136;SDS011;42008;52.934;5.884;2023-05-13T01:13:47;17.17;;;12.23;;
56136;SDS011;42008;52.934;5.884;2023-05-13T01:16:17;20.20;;;12.30;;
56136;SDS011;42008;52.934;5.884;2023-05-13T01:18:51;19.33;;;11.63;;
56136;SDS011;42008;52.934;5.884;2023-05-13T01:21:27;17.03;;;12.93;;
56136;SDS011;42008;52.934;5.884;2023-05-13T01:23:53;17.70;;;12.35;;
56136;SDS011;42008;52.934;5.884;2023-05-13T01:26:19;16.73;;;12.50;;
56136;SDS011;42008;52.934;5.884;2023-05-13T01:28:46;20.63;;;12.50;;
56136;SDS011;42008;52.934;5.884;2023-05-13T01:31:12;17.40;;;13.27;;
56136;SDS011;42008;52.934;5.884;2023-05-13T01:33:39;15.43;;;12.80;;
56136;SDS011;42008;52.934;5.884;2023-05-13T01:36:07;16.83;;;12.23;;
56136;SDS011;42008;52.934;5.884;2023-05-13T01:38:34;14.93;;;12.97;;
56136;SDS011;42008;52.934;5.884;2023-05-13T01:41:00;17.40;;;13.30;;
56136;SDS011;42008;52.934;5.884;2023-05-13T01:43:26;19.37;;;14.97;;
56136;SDS011;42008;52.934;5.884;2023-05-13T01:45:52;20.20;;;14.57;;
56136;SDS011;42008;52.934;5.884;2023-05-13T01:48:17;17.80;;;14.23;;
56136;SDS011;42008;52.934;5.884;2023-05-13T01:50:43;18.13;;;13.53;;
56136;SDS011;42008;52.934;5.884;2023-05-13T01:53:10;19.33;;;14.60;;
56136;SDS011;42008;52.934;5.884;2023-05-13T01:55:36;23.87;;;14.10;;
56136;SDS011;42008;52.934;5.884;2023-05-13T01:58:01;22.40;;;15.00;;
56136;SDS011;42008;52.934;5.884;2023-05-13T02:00:27;18.20;;;14.30;;
56136;SDS011;42008;52.934;5.884;2023-05-13T02:02:53;19.10;;;14.30;;
56136;SDS011;42008;52.934;5.884;2023-05-13T02:05:18;18.43;;;13.70;;
56136;SDS011;42008;52.934;5.884;2023-05-13T02:07:44;20.77;;;15.20;;
56136;SDS011;42008;52.934;5.884;2023-05-13T02:10:10;21.40;;;15.50;;
56136;SDS011;42008;52.934;5.884;2023-05-13T02:12:35;18.57;;;14.53;;
56136;SDS011;42008;52.934;5.884;2023-05-13T02:15:01;20.27;;;16.03;;
56136;SDS011;42008;52.934;5.884;2023-05-13T02:17:26;21.87;;;16.20;;
56136;SDS011;42008;52.934;5.884;2023-05-13T02:19:52;22.33;;;16.17;;
56136;SDS011;42008;52.934;5.884;2023-05-13T02:22:18;20.50;;;15.90;;
56136;SDS011;42008;52.934;5.884;2023-05-13T02:24:43;24.57;;;16.10;;
56136;SDS011;42008;52.934;5.884;2023-05-13T02:27:09;18.57;;;16.30;;
56136;SDS011;42008;52.934;5.884;2023-05-13T02:29:36;21.30;;;16.20;;
56136;SDS011;42008;52.934;5.884;2023-05-13T02:32:02;20.77;;;16.07;;
56136;SDS011;42008;52.934;5.884;2023-05-13T02:34:28;21.03;;;16.10;;
56136;SDS011;42008;52.934;5.884;2023-05-13T02:36:54;18.53;;;15.70;;
56136;SDS011;42008;52.934;5.884;2023-05-13T02:39:19;24.33;;;16.80;;
56136;SDS011;42008;52.934;5.884;2023-05-13T02:41:45;20.87;;;16.37;;
56136;SDS011;42008;52.934;5.884;2023-05-13T02:44:11;20.17;;;16.20;;
56136;SDS011;42008;52.934;5.884;2023-05-13T02:46:36;26.17;;;16.77;;
56136;SDS011;42008;52.934;5.884;2023-05-13T02:49:02;20.50;;;15.10;;
56136;SDS011;42008;52.934;5.884;2023-05-13T02:51:27;21.10;;;16.83;;
56136;SDS011;42008;52.934;5.884;2023-05-13T02:53:53;19.90;;;15.83;;
56136;SDS011;42008;52.934;5.884;2023-05-13T02:56:19;21.03;;;14.77;;
56136;SDS011;42008;52.934;5.884;2023-05-13T02:58:45;19.17;;;14.73;;
56136;SDS011;42008;52.934;5.884;2023-05-13T03:01:10;22.53;;;16.30;;
56136;SDS011;42008;52.934;5.884;2023-05-13T03:03:36;21.23;;;14.80;;
56136;SDS011;42008;52.934;5.884;2023-05-13T03:06:02;21.10;;;15.27;;
56136;SDS011;42008;52.934;5.884;2023-05-13T03:08:28;21.73;;;15.73;;
56136;SDS011;42008;52.934;5.884;2023-05-13T03:10:53;19.47;;;14.93;;
56136;SDS011;42008;52.934;5.884;2023-05-13T03:13:19;22.87;;;16.33;;
56136;SDS011;42008;52.934;5.884;2023-05-13T03:15:45;20.67;;;16.03;;
56136;SDS011;42008;52.934;5.884;2023-05-13T03:18:10;18.77;;;15.03;;
56136;SDS011;42008;52.934;5.884;2023-05-13T03:20:36;20.43;;;16.67;;
56136;SDS011;42008;52.934;5.884;2023-05-13T03:23:01;19.67;;;14.60;;
56136;SDS011;42008;52.934;5.884;2023-05-13T03:25:27;22.80;;;15.40;;
56136;SDS011;42008;52.934;5.884;2023-05-13T03:27:53;20.10;;;15.20;;
56136;SDS011;42008;52.934;5.884;2023-05-13T03:30:19;20.90;;;15.00;;
56136;SDS011;42008;52.934;5.884;2023-05-13T03:32:44;23.53;;;15.43;;
56136;SDS011;42008;52.934;5.884;2023-05-13T03:35:10;21.03;;;15.50;;
56136;SDS011;42008;52.934;5.884;2023-05-13T03:37:36;24.60;;;16.43;;
56136;SDS011;42008;52.934;5.884;2023-05-13T03:40:01;19.90;;;15.23;;
56136;SDS011;42008;52.934;5.884;2023-05-13T03:42:28;20.50;;;14.87;;
56136;SDS011;42008;52.934;5.884;2023-05-13T03:44:54;20.03;;;15.40;;
56136;SDS011;42008;52.934;5.884;2023-05-13T03:47:21;20.03;;;15.20;;
56136;SDS011;42008;52.934;5.884;2023-05-13T03:49:47;23.37;;;16.03;;
56136;SDS011;42008;52.934;5.884;2023-05-13T03:52:13;20.50;;;15.07;;
56136;SDS011;42008;52.934;5.884;2023-05-13T03:54:38;25.90;;;15.07;;
56136;SDS011;42008;52.934;5.884;2023-05-13T03:57:04;18.07;;;14.33;;
56136;SDS011;42008;52.934;5.884;2023-05-13T03:59:31;23.00;;;15.63;;
56136;SDS011;42008;52.934;5.884;2023-05-13T04:01:57;18.87;;;14.37;;
56136;SDS011;42008;52.934;5.884;2023-05-13T04:04:22;18.83;;;14.50;;
56136;SDS011;42008;52.934;5.884;2023-05-13T04:06:48;21.00;;;14.03;;
56136;SDS011;42008;52.934;5.884;2023-05-13T04:09:13;22.27;;;14.20;;
56136;SDS011;42008;52.934;5.884;2023-05-13T04:11:39;19.17;;;14.40;;
56136;SDS011;42008;52.934;5.884;2023-05-13T04:14:05;17.67;;;13.57;;
56136;SDS011;42008;52.934;5.884;2023-05-13T04:16:30;16.23;;;13.80;;
56136;SDS011;42008;52.934;5.884;2023-05-13T04:18:56;20.63;;;13.60;;
56136;SDS011;42008;52.934;5.884;2023-05-13T04:21:21;16.80;;;13.67;;
56136;SDS011;42008;52.934;5.884;2023-05-13T04:23:47;19.50;;;13.70;;
56136;SDS011;42008;52.934;5.884;2023-05-13T04:26:12;18.33;;;13.23;;
56136;SDS011;42008;52.934;5.884;2023-05-13T04:28:38;16.23;;;13.10;;
56136;SDS011;42008;52.934;5.884;2023-05-13T04:31:04;17.37;;;13.83;;
56136;SDS011;42008;52.934;5.884;2023-05-13T04:33:30;22.93;;;13.80;;
56136;SDS011;42008;52.934;5.884;2023-05-13T04:35:55;19.97;;;13.27;;
56136;SDS011;42008;52.934;5.884;2023-05-13T04:38:21;22.23;;;13.37;;
56136;SDS011;42008;52.934;5.884;2023-05-13T04:40:46;17.93;;;14.03;;
56136;SDS011;42008;52.934;5.884;2023-05-13T04:43:12;16.10;;;13.53;;
56136;SDS011;42008;52.934;5.884;2023-05-13T04:45:38;17.80;;;13.70;;
56136;SDS011;42008;52.934;5.884;2023-05-13T04:48:03;21.27;;;14.07;;
56136;SDS011;42008;52.934;5.884;2023-05-13T04:50:29;23.43;;;14.90;;
56136;SDS011;42008;52.934;5.884;2023-05-13T04:52:55;17.87;;;13.83;;
56136;SDS011;42008;52.934;5.884;2023-05-13T04:55:22;18.77;;;13.23;;
56136;SDS011;42008;52.934;5.884;2023-05-13T04:57:47;17.23;;;13.33;;
56136;SDS011;42008;52.934;5.884;2023-05-13T05:00:13;21.93;;;13.80;;
56136;SDS011;42008;52.934;5.884;2023-05-13T05:02:39;19.63;;;13.83;;
56136;SDS011;42008;52.934;5.884;2023-05-13T05:05:05;17.97;;;13.53;;
56136;SDS011;42008;52.934;5.884;2023-05-13T05:07:31;21.17;;;14.50;;
56136;SDS011;42008;52.934;5.884;2023-05-13T05:09:56;19.90;;;13.43;;
56136;SDS011;42008;52.934;5.884;2023-05-13T05:12:22;19.17;;;13.43;;
56136;SDS011;42008;52.934;5.884;2023-05-13T05:14:47;18.27;;;14.13;;
56136;SDS011;42008;52.934;5.884;2023-05-13T05:17:13;21.70;;;13.27;;
56136;SDS011;42008;52.934;5.884;2023-05-13T05:19:39;19.00;;;12.90;;
56136;SDS011;42008;52.934;5.884;2023-05-13T05:22:05;16.27;;;12.27;;
56136;SDS011;42008;52.934;5.884;2023-05-13T05:24:30;16.73;;;12.50;;
56136;SDS011;42008;52.934;5.884;2023-05-13T05:26:56;22.63;;;11.77;;
56136;SDS011;42008;52.934;5.884;2023-05-13T05:29:21;16.83;;;11.67;;
56136;SDS011;42008;52.934;5.884;2023-05-13T05:31:47;18.63;;;12.33;;
56136;SDS011;42008;52.934;5.884;2023-05-13T05:34:13;15.70;;;11.73;;
56136;SDS011;42008;52.934;5.884;2023-05-13T05:36:38;16.70;;;12.67;;
56136;SDS011;42008;52.934;5.884;2023-05-13T05:39:05;20.77;;;11.73;;
56136;SDS011;42008;52.934;5.884;2023-05-13T05:41:31;19.07;;;11.67;;
56136;SDS011;42008;52.934;5.884;2023-05-13T05:43:56;13.93;;;10.00;;
56136;SDS011;42008;52.934;5.884;2023-05-13T05:46:22;17.50;;;11.37;;
56136;SDS011;42008;52.934;5.884;2023-05-13T05:48:47;19.60;;;10.37;;
56136;SDS011;42008;52.934;5.884;2023-05-13T05:51:13;18.83;;;10.40;;
56136;SDS011;42008;52.934;5.884;2023-05-13T05:53:39;12.60;;;9.70;;
56136;SDS011;42008;52.934;5.884;2023-05-13T05:56:06;18.47;;;10.03;;
56136;SDS011;42008;52.934;5.884;2023-05-13T05:58:32;17.47;;;9.87;;
56136;SDS011;42008;52.934;5.884;2023-05-13T06:00:58;15.90;;;10.23;;
56136;SDS011;42008;52.934;5.884;2023-05-13T06:03:24;16.37;;;9.10;;
56136;SDS011;42008;52.934;5.884;2023-05-13T06:05:51;13.67;;;9.33;;
56136;SDS011;42008;52.934;5.884;2023-05-13T06:08:17;13.27;;;9.00;;
56136;SDS011;42008;52.934;5.884;2023-05-13T06:10:42;15.00;;;8.87;;
56136;SDS011;42008;52.934;5.884;2023-05-13T06:13:08;13.80;;;9.37;;
56136;SDS011;42008;52.934;5.884;2023-05-13T06:15:34;19.40;;;9.00;;
56136;SDS011;42008;52.934;5.884;2023-05-13T06:18:02;13.90;;;8.67;;
56136;SDS011;42008;52.934;5.884;2023-05-13T06:20:29;14.53;;;9.00;;
56136;SDS011;42008;52.934;5.884;2023-05-13T06:22:55;16.53;;;9.10;;
56136;SDS011;42008;52.934;5.884;2023-05-13T06:25:21;14.70;;;9.33;;
56136;SDS011;42008;52.934;5.884;2023-05-13T06:27:46;14.67;;;9.00;;
56136;SDS011;42008;52.934;5.884;2023-05-13T06:30:12;13.17;;;8.80;;
56136;SDS011;42008;52.934;5.884;2023-05-13T06:32:37;18.83;;;8.70;;
56136;SDS011;42008;52.934;5.884;2023-05-13T06:35:03;16.33;;;8.67;;
56136;SDS011;42008;52.934;5.884;2023-05-13T06:37:29;14.17;;;8.40;;
56136;SDS011;42008;52.934;5.884;2023-05-13T06:39:54;16.00;;;8.00;;
56136;SDS011;42008;52.934;5.884;2023-05-13T06:42:20;14.07;;;8.30;;
56136;SDS011;42008;52.934;5.884;2023-05-13T06:44:45;13.60;;;8.37;;
56136;SDS011;42008;52.934;5.884;2023-05-13T06:47:11;12.77;;;8.20;;
56136;SDS011;42008;52.934;5.884;2023-05-13T06:49:39;13.70;;;8.07;;
56136;SDS011;42008;52.934;5.884;2023-05-13T06:52:06;13.27;;;8.37;;
56136;SDS011;42008;52.934;5.884;2023-05-13T06:54:32;13.40;;;8.23;;
56136;SDS011;42008;52.934;5.884;2023-05-13T06:56:58;15.43;;;8.30;;
56136;SDS011;42008;52.934;5.884;2023-05-13T06:59:23;11.40;;;7.90;;
56136;SDS011;42008;52.934;5.884;2023-05-13T07:01:49;16.50;;;7.90;;
56136;SDS011;42008;52.934;5.884;2023-05-13T07:04:14;17.43;;;7.97;;
56136;SDS011;42008;52.934;5.884;2023-05-13T07:06:40;16.50;;;7.90;;
56136;SDS011;42008;52.934;5.884;2023-05-13T07:09:06;13.27;;;7.57;;
56136;SDS011;42008;52.934;5.884;2023-05-13T07:11:33;13.87;;;7.40;;
56136;SDS011;42008;52.934;5.884;2023-05-13T07:14:00;11.50;;;7.63;;
56136;SDS011;42008;52.934;5.884;2023-05-13T07:16:25;13.87;;;7.80;;
56136;SDS011;42008;52.934;5.884;2023-05-13T07:18:51;14.33;;;7.30;;
56136;SDS011;42008;52.934;5.884;2023-05-13T07:21:18;16.27;;;7.50;;
56136;SDS011;42008;52.934;5.884;2023-05-13T07:23:43;13.43;;;6.90;;
56136;SDS011;42008;52.934;5.884;2023-05-13T07:26:09;11.30;;;7.43;;
56136;SDS011;42008;52.934;5.884;2023-05-13T07:28:35;13.17;;;7.17;;
56136;SDS011;42008;52.934;5.884;2023-05-13T07:31:00;14.40;;;6.83;;
56136;SDS011;42008;52.934;5.884;2023-05-13T07:33:28;12.63;;;6.80;;
56136;SDS011;42008;52.934;5.884;2023-05-13T07:35:53;11.43;;;7.17;;
56136;SDS011;42008;52.934;5.884;2023-05-13T07:38:19;13.30;;;7.10;;
56136;SDS011;42008;52.934;5.884;2023-05-13T07:40:45;12.40;;;6.80;;
56136;SDS011;42008;52.934;5.884;2023-05-13T07:43:10;13.33;;;7.27;;
56136;SDS011;42008;52.934;5.884;2023-05-13T07:45:37;16.87;;;7.43;;
56136;SDS011;42008;52.934;5.884;2023-05-13T07:48:03;14.63;;;7.40;;
56136;SDS011;42008;52.934;5.884;2023-05-13T07:50:29;11.00;;;6.47;;
56136;SDS011;42008;52.934;5.884;2023-05-13T07:52:55;9.03;;;6.40;;
56136;SDS011;42008;52.934;5.884;2023-05-13T07:55:21;14.83;;;6.93;;
56136;SDS011;42008;52.934;5.884;2023-05-13T07:57:47;13.77;;;6.77;;
56136;SDS011;42008;52.934;5.884;2023-05-13T08:00:12;11.60;;;6.40;;
56136;SDS011;42008;52.934;5.884;2023-05-13T08:02:40;9.43;;;6.40;;
56136;SDS011;42008;52.934;5.884;2023-05-13T08:05:07;12.10;;;6.43;;
56136;SDS011;42008;52.934;5.884;2023-05-13T08:07:33;8.40;;;6.17;;
56136;SDS011;42008;52.934;5.884;2023-05-13T08:09:59;11.33;;;6.63;;
56136;SDS011;42008;52.934;5.884;2023-05-13T08:12:25;14.17;;;6.97;;
56136;SDS011;42008;52.934;5.884;2023-05-13T08:14:50;10.83;;;6.43;;
56136;SDS011;42008;52.934;5.884;2023-05-13T08:17:16;13.10;;;6.83;;
56136;SDS011;42008;52.934;5.884;2023-05-13T08:19:43;12.80;;;6.77;;
56136;SDS011;42008;52.934;5.884;2023-05-13T08:22:09;13.47;;;6.27;;
56136;SDS011;42008;52.934;5.884;2023-05-13T08:24:35;11.87;;;6.23;;
56136;SDS011;42008;52.934;5.884;2023-05-13T08:27:01;13.47;;;6.20;;
56136;SDS011;42008;52.934;5.884;2023-05-13T08:29:27;14.90;;;6.50;;
56136;SDS011;42008;52.934;5.884;2023-05-13T08:31:53;10.53;;;5.67;;
56136;SDS011;42008;52.934;5.884;2023-05-13T08:34:19;13.00;;;6.93;;
56136;SDS011;42008;52.934;5.884;2023-05-13T08:36:45;9.93;;;5.90;;
56136;SDS011;42008;52.934;5.884;2023-05-13T08:39:10;9.57;;;5.83;;
56136;SDS011;42008;52.934;5.884;2023-05-13T08:41:36;16.73;;;6.40;;
56136;SDS011;42008;52.934;5.884;2023-05-13T08:44:03;11.23;;;6.00;;
56136;SDS011;42008;52.934;5.884;2023-05-13T08:46:31;8.53;;;5.47;;
56136;SDS011;42008;52.934;5.884;2023-05-13T08:49:00;9.00;;;5.30;;
56136;SDS011;42008;52.934;5.884;2023-05-13T08:51:26;14.30;;;5.50;;
56136;SDS011;42008;52.934;5.884;2023-05-13T08:53:52;9.73;;;5.03;;
56136;SDS011;42008;52.934;5.884;2023-05-13T08:56:19;9.23;;;5.40;;
56136;SDS011;42008;52.934;5.884;2023-05-13T08:58:46;11.70;;;6.07;;
56136;SDS011;42008;52.934;5.884;2023-05-13T09:01:12;13.40;;;6.10;;
56136;SDS011;42008;52.934;5.884;2023-05-13T09:03:40;12.23;;;5.37;;
56136;SDS011;42008;52.934;5.884;2023-05-13T09:06:15;14.27;;;5.83;;
56136;SDS011;42008;52.934;5.884;2023-05-13T09:08:41;15.63;;;6.57;;
56136;SDS011;42008;52.934;5.884;2023-05-13T09:11:07;9.37;;;5.00;;
56136;SDS011;42008;52.934;5.884;2023-05-13T09:13:32;10.20;;;5.07;;
56136;SDS011;42008;52.934;5.884;2023-05-13T09:15:58;15.07;;;5.23;;
56136;SDS011;42008;52.934;5.884;2023-05-13T09:18:29;9.27;;;4.90;;
56136;SDS011;42008;52.934;5.884;2023-05-13T09:21:04;9.50;;;5.13;;
56136;SDS011;42008;52.934;5.884;2023-05-13T09:24:10;8.32;;;4.78;;
56136;SDS011;42008;52.934;5.884;2023-05-13T09:26:38;9.77;;;4.83;;
56136;SDS011;42008;52.934;5.884;2023-05-13T09:29:22;9.67;;;4.57;;
56136;SDS011;42008;52.934;5.884;2023-05-13T09:31:49;12.97;;;5.03;;
56136;SDS011;42008;52.934;5.884;2023-05-13T09:34:24;8.70;;;4.70;;
56136;SDS011;42008;52.934;5.884;2023-05-13T09:36:57;16.77;;;5.30;;
56136;SDS011;42008;52.934;5.884;2023-05-13T09:39:31;9.73;;;4.80;;
56136;SDS011;42008;52.934;5.884;2023-05-13T09:42:15;9.60;;;5.30;;
56136;SDS011;42008;52.934;5.884;2023-05-13T09:44:43;8.43;;;4.82;;
56136;SDS011;42008;52.934;5.884;2023-05-13T09:47:15;11.27;;;4.72;;
56136;SDS011;42008;52.934;5.884;2023-05-13T09:49:42;12.23;;;5.22;;
56136;SDS011;42008;52.934;5.884;2023-05-13T09:52:09;10.63;;;4.80;;
56136;SDS011;42008;52.934;5.884;2023-05-13T09:54:38;11.38;;;5.25;;
56136;SDS011;42008;52.934;5.884;2023-05-13T09:57:04;8.57;;;4.82;;
56136;SDS011;42008;52.934;5.884;2023-05-13T09:59:33;12.45;;;5.60;;
56136;SDS011;42008;52.934;5.884;2023-05-13T10:01:59;9.57;;;5.53;;
56136;SDS011;42008;52.934;5.884;2023-05-13T10:04:29;7.03;;;5.03;;
56136;SDS011;42008;52.934;5.884;2023-05-13T10:06:56;13.25;;;5.63;;
56136;SDS011;42008;52.934;5.884;2023-05-13T10:09:22;16.27;;;5.13;;
56136;SDS011;42008;52.934;5.884;2023-05-13T10:11:50;11.38;;;4.53;;
56136;SDS011;42008;52.934;5.884;2023-05-13T10:14:17;13.75;;;5.50;;
56136;SDS011;42008;52.934;5.884;2023-05-13T10:16:43;7.65;;;4.50;;
56136;SDS011;42008;52.934;5.884;2023-05-13T10:19:11;11.25;;;4.88;;
56136;SDS011;42008;52.934;5.884;2023-05-13T10:21:37;8.93;;;4.43;;
56136;SDS011;42008;52.934;5.884;2023-05-13T10:24:04;10.13;;;4.38;;
56136;SDS011;42008;52.934;5.884;2023-05-13T10:26:31;10.30;;;4.28;;
56136;SDS011;42008;52.934;5.884;2023-05-13T10:28:57;10.68;;;4.63;;
56136;SDS011;42008;52.934;5.884;2023-05-13T10:31:23;7.05;;;4.82;;
56136;SDS011;42008;52.934;5.884;2023-05-13T10:33:51;8.90;;;5.22;;
56136;SDS011;42008;52.934;5.884;2023-05-13T10:44:32;12.65;;;5.40;;
56136;SDS011;42008;52.934;5.884;2023-05-13T10:47:00;10.30;;;5.53;;
56136;SDS011;42008;52.934;5.884;2023-05-13T10:49:31;10.73;;;5.60;;
56136;SDS011;42008;52.934;5.884;2023-05-13T10:52:05;10.65;;;5.38;;
56136;SDS011;42008;52.934;5.884;2023-05-13T10:54:36;12.38;;;5.28;;
56136;SDS011;42008;52.934;5.884;2023-05-13T10:57:04;9.77;;;4.95;;
56136;SDS011;42008;52.934;5.884;2023-05-13T10:59:31;10.00;;;5.25;;
56136;SDS011;42008;52.934;5.884;2023-05-13T11:01:59;8.70;;;5.18;;
56136;SDS011;42008;52.934;5.884;2023-05-13T11:04:56;10.90;;;4.88;;
56136;SDS011;42008;52.934;5.884;2023-05-13T11:07:23;13.30;;;5.18;;
56136;SDS011;42008;52.934;5.884;2023-05-13T11:09:48;8.48;;;4.60;;
56136;SDS011;42008;52.934;5.884;2023-05-13T11:12:15;11.00;;;5.18;;
56136;SDS011;42008;52.934;5.884;2023-05-13T11:14:41;12.10;;;4.47;;
56136;SDS011;42008;52.934;5.884;2023-05-13T11:17:09;11.75;;;5.00;;
56136;SDS011;42008;52.934;5.884;2023-05-13T11:19:36;12.40;;;4.97;;
56136;SDS011;42008;52.934;5.884;2023-05-13T11:22:19;8.50;;;5.22;;
56136;SDS011;42008;52.934;5.884;2023-05-13T11:25:06;12.15;;;5.10;;
56136;SDS011;42008;52.934;5.884;2023-05-13T11:27:36;10.57;;;6.03;;
56136;SDS011;42008;52.934;5.884;2023-05-13T11:30:07;10.60;;;5.43;;
56136;SDS011;42008;52.934;5.884;2023-05-13T11:35:22;11.60;;;5.82;;
56136;SDS011;42008;52.934;5.884;2023-05-13T11:37:49;12.82;;;5.93;;
56136;SDS011;42008;52.934;5.884;2023-05-13T11:42:47;15.98;;;5.35;;
56136;SDS011;42008;52.934;5.884;2023-05-13T11:45:14;9.95;;;6.05;;
56136;SDS011;42008;52.934;5.884;2023-05-13T11:47:44;11.43;;;5.70;;
56136;SDS011;42008;52.934;5.884;2023-05-13T11:50:17;8.88;;;6.00;;
56136;SDS011;42008;52.934;5.884;2023-05-13T11:52:50;10.50;;;5.35;;
56136;SDS011;42008;52.934;5.884;2023-05-13T11:55:23;8.77;;;5.70;;
56136;SDS011;42008;52.934;5.884;2023-05-13T11:57:53;9.27;;;5.28;;
56136;SDS011;42008;52.934;5.884;2023-05-13T12:00:25;10.18;;;5.20;;
56136;SDS011;42008;52.934;5.884;2023-05-13T12:02:52;10.15;;;5.15;;
56136;SDS011;42008;52.934;5.884;2023-05-13T12:05:18;11.50;;;5.28;;
56136;SDS011;42008;52.934;5.884;2023-05-13T12:07:44;9.52;;;5.00;;
56136;SDS011;42008;52.934;5.884;2023-05-13T12:10:10;10.27;;;5.45;;
56136;SDS011;42008;52.934;5.884;2023-05-13T12:12:39;11.55;;;6.13;;
56136;SDS011;42008;52.934;5.884;2023-05-13T12:17:37;11.52;;;5.97;;
56136;SDS011;42008;52.934;5.884;2023-05-13T12:20:13;12.70;;;5.68;;
56136;SDS011;42008;52.934;5.884;2023-05-13T12:30:55;13.05;;;5.70;;
56136;SDS011;42008;52.934;5.884;2023-05-13T12:35:54;9.57;;;5.60;;
56136;SDS011;42008;52.934;5.884;2023-05-13T12:38:38;9.40;;;5.45;;
56136;SDS011;42008;52.934;5.884;2023-05-13T12:41:10;11.18;;;5.78;;
56136;SDS011;42008;52.934;5.884;2023-05-13T12:43:39;11.38;;;5.95;;
56136;SDS011;42008;52.934;5.884;2023-05-13T12:46:05;10.05;;;5.50;;
56136;SDS011;42008;52.934;5.884;2023-05-13T12:48:34;14.52;;;5.57;;
56136;SDS011;42008;52.934;5.884;2023-05-13T12:50:59;10.50;;;5.80;;
56136;SDS011;42008;52.934;5.884;2023-05-13T12:53:25;11.88;;;5.93;;
56136;SDS011;42008;52.934;5.884;2023-05-13T12:55:50;11.88;;;5.57;;
56136;SDS011;42008;52.934;5.884;2023-05-13T12:58:16;9.85;;;5.05;;
56136;SDS011;42008;52.934;5.884;2023-05-13T13:00:41;8.82;;;5.13;;
56136;SDS011;42008;52.934;5.884;2023-05-13T13:03:07;9.85;;;5.55;;
56136;SDS011;42008;52.934;5.884;2023-05-13T13:05:33;8.05;;;4.65;;
56136;SDS011;42008;52.934;5.884;2023-05-13T13:07:58;7.97;;;4.97;;
56136;SDS011;42008;52.934;5.884;2023-05-13T13:10:29;8.77;;;4.65;;
56136;SDS011;42008;52.934;5.884;2023-05-13T13:12:55;8.27;;;5.10;;
56136;SDS011;42008;52.934;5.884;2023-05-13T13:15:20;13.55;;;4.85;;
56136;SDS011;42008;52.934;5.884;2023-05-13T13:17:46;9.88;;;4.70;;
56136;SDS011;42008;52.934;5.884;2023-05-13T13:20:11;8.70;;;4.50;;
56136;SDS011;42008;52.934;5.884;2023-05-13T13:22:37;11.15;;;4.95;;
56136;SDS011;42008;52.934;5.884;2023-05-13T13:25:06;9.57;;;4.70;;
56136;SDS011;42008;52.934;5.884;2023-05-13T13:27:32;11.40;;;4.60;;
56136;SDS011;42008;52.934;5.884;2023-05-13T13:29:58;8.15;;;4.35;;
56136;SDS011;42008;52.934;5.884;2023-05-13T13:32:24;10.63;;;4.70;;
56136;SDS011;42008;52.934;5.884;2023-05-13T13:34:50;7.45;;;4.43;;
56136;SDS011;42008;52.934;5.884;2023-05-13T13:37:15;9.15;;;4.15;;
56136;SDS011;42008;52.934;5.884;2023-05-13T13:39:41;12.43;;;4.55;;
56136;SDS011;42008;52.934;5.884;2023-05-13T13:42:06;7.80;;;3.63;;
56136;SDS011;42008;52.934;5.884;2023-05-13T13:44:32;5.70;;;3.30;;
56136;SDS011;42008;52.934;5.884;2023-05-13T13:46:58;11.32;;;4.03;;
56136;SDS011;42008;52.934;5.884;2023-05-13T13:49:23;12.85;;;3.97;;
56136;SDS011;42008;52.934;5.884;2023-05-13T13:51:50;12.25;;;4.78;;
56136;SDS011;42008;52.934;5.884;2023-05-13T13:54:16;9.95;;;3.85;;
56136;SDS011;42008;52.934;5.884;2023-05-13T13:56:42;9.10;;;3.67;;
56136;SDS011;42008;52.934;5.884;2023-05-13T13:59:07;7.32;;;4.10;;
56136;SDS011;42008;52.934;5.884;2023-05-13T14:01:33;9.05;;;3.55;;
56136;SDS011;42008;52.934;5.884;2023-05-13T14:04:09;7.85;;;2.70;;
56136;SDS011;42008;52.934;5.884;2023-05-13T14:06:35;10.68;;;4.00;;
56136;SDS011;42008;52.934;5.884;2023-05-13T14:09:01;10.10;;;3.95;;
56136;SDS011;42008;52.934;5.884;2023-05-13T14:11:27;12.13;;;3.80;;
56136;SDS011;42008;52.934;5.884;2023-05-13T14:13:53;10.75;;;4.20;;
56136;SDS011;42008;52.934;5.884;2023-05-13T14:16:19;8.55;;;3.40;;
56136;SDS011;42008;52.934;5.884;2023-05-13T14:18:44;9.68;;;3.42;;
56136;SDS011;42008;52.934;5.884;2023-05-13T14:21:10;6.50;;;3.40;;
56136;SDS011;42008;52.934;5.884;2023-05-13T14:23:35;6.03;;;3.42;;
56136;SDS011;42008;52.934;5.884;2023-05-13T14:26:02;10.07;;;3.70;;
56136;SDS011;42008;52.934;5.884;2023-05-13T14:28:27;7.80;;;3.50;;
56136;SDS011;42008;52.934;5.884;2023-05-13T14:30:53;12.88;;;3.53;;
56136;SDS011;42008;52.934;5.884;2023-05-13T14:33:19;8.25;;;3.45;;
56136;SDS011;42008;52.934;5.884;2023-05-13T14:35:44;9.23;;;3.70;;
56136;SDS011;42008;52.934;5.884;2023-05-13T14:38:10;8.18;;;3.60;;
56136;SDS011;42008;52.934;5.884;2023-05-13T14:40:35;7.70;;;3.55;;
56136;SDS011;42008;52.934;5.884;2023-05-13T14:43:02;7.60;;;3.60;;
56136;SDS011;42008;52.934;5.884;2023-05-13T14:45:28;9.45;;;3.30;;
56136;SDS011;42008;52.934;5.884;2023-05-13T14:47:53;8.60;;;3.60;;
56136;SDS011;42008;52.934;5.884;2023-05-13T14:50:19;9.05;;;3.65;;
56136;SDS011;42008;52.934;5.884;2023-05-13T14:52:45;7.57;;;3.40;;
56136;SDS011;42008;52.934;5.884;2023-05-13T14:55:10;8.98;;;3.35;;
56136;SDS011;42008;52.934;5.884;2023-05-13T14:57:36;8.20;;;3.40;;
56136;SDS011;42008;52.934;5.884;2023-05-13T15:00:02;9.13;;;3.38;;
56136;SDS011;42008;52.934;5.884;2023-05-13T15:02:28;9.85;;;3.58;;
56136;SDS011;42008;52.934;5.884;2023-05-13T15:04:54;10.45;;;3.85;;